createdAt,value
2019-02-19T00:02:36.043Z,-1.4
2019-02-19T00:07:31.955Z,-0.5
2019-02-19T00:12:28.700Z,-0.6
2019-02-19T00:17:24.605Z,-0.8
2019-02-19T00:22:20.891Z,-0.7
2019-02-19T00:27:17.462Z,-0.9
2019-02-19T00:32:14.122Z,-1.4
2019-02-19T00:37:10.290Z,-0.9
2019-02-19T00:42:06.513Z,-0.9
2019-02-19T00:47:02.932Z,-0.9
2019-02-19T00:51:59.043Z,-1
2019-02-19T00:56:55.459Z,-1
2019-02-19T01:01:51.516Z,-1.1
2019-02-19T01:06:48.148Z,-1.1
2019-02-19T01:11:44.732Z,-2
2019-02-19T01:16:41.435Z,-1.3
2019-02-19T01:21:37.879Z,-1.9
2019-02-19T01:26:34.353Z,-1.2
2019-02-19T01:31:30.962Z,-1.3
2019-02-19T01:36:27.653Z,-2
2019-02-19T01:41:24.550Z,-1.3
2019-02-19T01:46:21.282Z,-1.4
2019-02-19T01:51:17.821Z,-2.1
2019-02-19T01:56:13.979Z,-1.4
2019-02-19T02:01:10.761Z,-1.6
2019-02-19T02:06:07.435Z,-1.6
2019-02-19T02:11:04.098Z,-1.8
2019-02-19T02:16:00.803Z,-1.9
2019-02-19T02:20:57.466Z,-2.7
2019-02-19T02:25:53.970Z,-2.5
2019-02-19T02:30:50.727Z,-2.5
2019-02-19T02:35:47.391Z,-1.9
2019-02-19T02:40:43.797Z,-2.5
2019-02-19T02:45:40.735Z,-2.1
2019-02-19T02:50:37.271Z,-2.6
2019-02-19T02:55:33.827Z,-2.8
2019-02-19T03:00:30.390Z,-2.7
2019-02-19T03:05:26.968Z,-2.8
2019-02-19T03:10:23.651Z,-2.3
2019-02-19T03:15:20.458Z,-2.2
2019-02-19T03:20:17.028Z,-3
2019-02-19T03:25:13.478Z,-2.8
2019-02-19T03:30:10.271Z,-2.7
2019-02-19T03:35:06.863Z,-2.8
2019-02-19T03:40:03.379Z,-2.8
2019-02-19T03:45:00.014Z,-2.8
2019-02-19T03:49:56.715Z,-2.4
2019-02-19T03:54:53.236Z,-3.1
2019-02-19T03:59:49.735Z,-3.2
2019-02-19T04:04:45.964Z,-3.2
2019-02-19T04:09:42.693Z,-2.7
2019-02-19T04:14:39.274Z,-3.5
2019-02-19T04:19:35.763Z,-3.6
2019-02-19T04:24:32.419Z,-3.6
2019-02-19T04:29:29.075Z,-3.7
2019-02-19T04:34:25.491Z,-3.7
2019-02-19T04:39:21.904Z,-3.8
2019-02-19T04:44:17.954Z,-3.9
2019-02-19T04:49:14.505Z,-3.8
2019-02-19T04:54:11.194Z,-3.8
2019-02-19T04:59:07.880Z,-3.1
2019-02-19T05:04:04.496Z,-3.7
2019-02-19T05:09:01.274Z,-3.5
2019-02-19T05:13:57.986Z,-3.6
2019-02-19T05:18:54.555Z,-3.6
2019-02-19T05:23:51.232Z,-3.6
2019-02-19T05:28:47.936Z,-3.7
2019-02-19T05:33:44.580Z,-3.7
2019-02-19T05:38:41.290Z,-2.9
2019-02-19T05:43:37.897Z,-3.4
2019-02-19T05:48:34.781Z,-3.3
2019-02-19T05:53:31.601Z,-3.2
2019-02-19T05:58:28.271Z,-3.2
2019-02-19T06:03:25.018Z,-2.5
2019-02-19T06:08:21.832Z,-3
2019-02-19T06:13:18.669Z,-2.9
2019-02-19T06:18:15.595Z,-1.9
2019-02-19T06:23:12.760Z,-1.5
2019-02-19T06:28:09.900Z,-1
2019-02-19T06:33:07.092Z,-0.8
2019-02-19T06:38:03.317Z,-0.1
2019-02-19T06:43:00.251Z,-0.8
2019-02-19T06:47:56.896Z,-0.7
2019-02-19T06:52:53.344Z,-1.1
2019-02-19T06:57:49.964Z,-0.1
2019-02-19T07:02:47.054Z,0.2
2019-02-19T07:07:43.965Z,-0.2
2019-02-19T07:12:40.808Z,0.1
2019-02-19T07:17:38.027Z,1.3
2019-02-19T07:22:34.933Z,0.6
2019-02-19T07:27:31.660Z,1.3
2019-02-19T07:32:28.575Z,1.5
2019-02-19T07:37:25.440Z,1.6
2019-02-19T07:42:21.910Z,1.9
2019-02-19T07:47:24.550Z,1.6
2019-02-19T07:52:20.440Z,2.6
2019-02-19T07:57:17.255Z,2.9
2019-02-19T08:02:14.247Z,3.2
2019-02-19T08:07:11.146Z,3.3
2019-02-19T08:12:07.389Z,2.7
2019-02-19T08:17:04.449Z,3.1
2019-02-19T08:22:01.207Z,4.1
2019-02-19T08:26:58.331Z,4.2
2019-02-19T08:31:54.851Z,4.2
2019-02-19T08:36:52.281Z,5
2019-02-19T08:41:49.737Z,4.8
2019-02-19T08:46:46.328Z,5.7
2019-02-19T08:51:42.577Z,5.9
2019-02-19T08:56:39.616Z,6.2
2019-02-19T09:01:35.928Z,6.2
2019-02-19T09:06:33.168Z,6.4
2019-02-19T09:11:29.963Z,7
2019-02-19T09:16:27.278Z,7.6
2019-02-19T09:21:23.803Z,6.5
2019-02-19T09:26:20.729Z,7.7
2019-02-19T09:31:17.577Z,7.8
2019-02-19T09:36:14.089Z,6.9
2019-02-19T09:41:11.324Z,8
2019-02-19T09:46:08.679Z,8.4
2019-02-19T09:51:05.806Z,8.8
2019-02-19T09:56:02.977Z,9.2
2019-02-19T10:00:59.266Z,8.9
2019-02-19T10:05:56.798Z,9.6
2019-02-19T10:10:54.068Z,10.5
2019-02-19T10:15:51.263Z,10.3
2019-02-19T10:20:48.812Z,10.6
2019-02-19T10:25:45.773Z,10.4
2019-02-19T10:30:42.965Z,11.4
2019-02-19T10:35:40.525Z,11
2019-02-19T10:40:37.684Z,12.1
2019-02-19T10:45:35.341Z,12.6
2019-02-19T10:50:32.072Z,12.6
2019-02-19T10:55:29.256Z,12.4
2019-02-19T11:00:26.124Z,12.8
2019-02-19T11:05:23.089Z,12.2
2019-02-19T11:10:20.088Z,12.6
2019-02-19T11:15:17.544Z,13.3
2019-02-19T11:20:15.419Z,14.5
2019-02-19T11:25:13.007Z,15.1
2019-02-19T11:30:10.010Z,15.4
2019-02-19T11:35:07.314Z,15.2
2019-02-19T11:40:04.593Z,16
2019-02-19T11:45:01.745Z,15.8
2019-02-19T11:49:58.458Z,15.6
2019-02-19T11:54:54.594Z,15.7
2019-02-19T11:59:51.409Z,15.6
2019-02-19T12:04:48.395Z,15.9
2019-02-19T12:09:45.382Z,15.6
2019-02-19T12:14:42.363Z,15.5
2019-02-19T12:19:39.610Z,16.1
2019-02-19T12:24:36.363Z,16
2019-02-19T12:29:33.519Z,15.9
2019-02-19T12:34:30.894Z,16
2019-02-19T12:39:28.130Z,15
2019-02-19T12:44:25.355Z,16
2019-02-19T12:49:22.086Z,16.1
2019-02-19T12:54:18.872Z,16.2
2019-02-19T12:59:15.118Z,15.9
2019-02-19T13:04:11.913Z,15.9
2019-02-19T13:09:08.583Z,15.7
2019-02-19T13:14:05.173Z,15.8
2019-02-19T13:19:03.388Z,15.4
2019-02-19T13:23:59.637Z,15.3
2019-02-19T13:28:56.666Z,15.3
2019-02-19T13:33:53.299Z,15.3
2019-02-19T13:38:50.334Z,15.4
2019-02-19T13:43:47.229Z,15.2
2019-02-19T13:48:44.049Z,15.2
2019-02-19T13:53:41.081Z,15.2
2019-02-19T13:58:38.053Z,15
2019-02-19T14:03:34.723Z,14.7
2019-02-19T14:08:31.666Z,14.6
2019-02-19T14:13:28.557Z,13.9
2019-02-19T14:18:25.368Z,14.3
2019-02-19T14:23:22.414Z,14.2
2019-02-19T14:28:19.273Z,13.5
2019-02-19T14:33:15.779Z,12.9
2019-02-19T14:38:12.495Z,12.9
2019-02-19T14:43:09.193Z,13.2
2019-02-19T14:48:06.047Z,12.6
2019-02-19T14:53:03.748Z,13.1
2019-02-19T14:58:00.461Z,12.3
2019-02-19T15:02:56.963Z,12.1
2019-02-19T15:07:53.915Z,12.2
2019-02-19T15:12:50.783Z,12.6
2019-02-19T15:17:47.808Z,12.4
2019-02-19T15:22:44.676Z,12
2019-02-19T15:27:41.430Z,12.1
2019-02-19T15:32:38.312Z,11.4
2019-02-19T15:37:35.206Z,11.2
2019-02-19T15:42:31.689Z,10.8
2019-02-19T15:47:28.579Z,10.9
2019-02-19T15:52:25.503Z,11.2
2019-02-19T15:57:22.156Z,10.6
2019-02-19T16:02:19.038Z,11.2
2019-02-19T16:07:15.869Z,10.4
2019-02-19T16:12:12.298Z,10
2019-02-19T16:17:08.901Z,9.9
2019-02-19T16:22:05.585Z,9.3
2019-02-19T16:27:02.183Z,9.1
2019-02-19T16:31:58.545Z,9.8
2019-02-19T16:36:55.676Z,9.6
2019-02-19T16:41:52.584Z,9.5
2019-02-19T16:46:49.509Z,9.8
2019-02-19T16:51:46.473Z,9.4
2019-02-19T16:56:43.066Z,9.6
2019-02-19T17:01:39.594Z,9.3
2019-02-19T17:06:36.108Z,9.1
2019-02-19T17:11:32.829Z,8.7
2019-02-19T17:16:29.610Z,8.5
2019-02-19T17:21:26.120Z,8.3
2019-02-19T17:26:22.713Z,8
2019-02-19T17:31:19.490Z,7.7
2019-02-19T17:36:16.516Z,7.8
2019-02-19T17:41:13.226Z,7.4
2019-02-19T17:46:10.074Z,7.1
2019-02-19T17:51:06.038Z,7
2019-02-19T17:56:03.074Z,7.6
2019-02-19T18:00:59.802Z,7.9
2019-02-19T18:05:57.128Z,8.4
2019-02-19T18:10:54.465Z,9.1
2019-02-19T18:15:51.528Z,9.1
2019-02-19T18:20:49.698Z,8.9
2019-02-19T18:25:47.096Z,9.1
2019-02-19T18:30:43.631Z,8.9
2019-02-19T18:35:40.772Z,8.8
2019-02-19T18:40:37.739Z,8.9
2019-02-19T18:45:33.692Z,8.7
2019-02-19T18:50:30.185Z,8.7
2019-02-19T18:55:27.187Z,9
2019-02-19T19:00:23.942Z,8.9
2019-02-19T19:05:20.686Z,8.6
2019-02-19T19:10:17.007Z,8.4
2019-02-19T19:15:13.618Z,8.2
2019-02-19T19:20:10.501Z,8.4
2019-02-19T19:25:07.503Z,8.3
2019-02-19T19:30:04.366Z,8.4
2019-02-19T19:35:01.283Z,8.6
2019-02-19T19:39:58.108Z,8.6
2019-02-19T19:44:54.643Z,8.5
2019-02-19T19:49:51.161Z,8.5
2019-02-19T19:54:47.695Z,8.2
2019-02-19T19:59:44.299Z,7.8
2019-02-19T20:04:40.704Z,7.5
2019-02-19T20:09:37.448Z,7.3
2019-02-19T20:14:33.991Z,7.1
2019-02-19T20:19:30.154Z,6.2
2019-02-19T20:24:26.157Z,4.8
2019-02-19T20:29:22.562Z,5.2
2019-02-19T20:34:19.225Z,5.2
2019-02-19T20:39:16.318Z,5.5
2019-02-19T20:44:12.738Z,5
2019-02-19T20:49:09.412Z,4.5
2019-02-19T20:54:05.914Z,4.1
2019-02-19T20:59:02.269Z,3.9
2019-02-19T21:03:58.722Z,3.7
2019-02-19T21:08:54.726Z,3.6
2019-02-19T21:13:51.079Z,3.7
2019-02-19T21:18:47.759Z,2.9
2019-02-19T21:23:44.203Z,3.2
2019-02-19T21:28:40.443Z,3.1
2019-02-19T21:33:36.728Z,2.9
2019-02-19T21:38:33.275Z,2.9
2019-02-19T21:43:29.820Z,2.7
2019-02-19T21:48:26.223Z,2.5
2019-02-19T21:53:22.652Z,2.3
2019-02-19T21:58:18.955Z,2.2
2019-02-19T22:03:15.268Z,1.3
2019-02-19T22:08:11.766Z,1.4
2019-02-19T22:13:08.299Z,1.9
2019-02-19T22:18:04.825Z,1.9
2019-02-19T22:23:01.080Z,1.7
2019-02-19T22:27:57.739Z,1.7
2019-02-19T22:32:54.087Z,1.5
2019-02-19T22:37:50.660Z,0.9
2019-02-19T22:42:47.068Z,0.8
2019-02-19T22:47:43.417Z,1.3
2019-02-19T22:52:39.870Z,1
2019-02-19T22:57:35.585Z,1.1
2019-02-19T23:02:31.819Z,0.9
2019-02-19T23:07:28.344Z,0.9
2019-02-19T23:12:25.069Z,0.8
2019-02-19T23:17:21.287Z,0.8
2019-02-19T23:22:21.517Z,0.1
2019-02-19T23:27:17.442Z,0
2019-02-19T23:32:14.296Z,0.2
2019-02-19T23:37:10.594Z,0.6
2019-02-19T23:42:07.207Z,0.6
2019-02-19T23:47:03.690Z,0.6
2019-02-19T23:51:59.823Z,0.2
2019-02-19T23:56:56.157Z,-0.2
